Ever Ursula — 3FCB9 — position and weather

sailwx.info

Track history (hours):
 
Tides and Currents Weather Stations Pressure Air Temp Water Temp Dewpoint Dewpoint Depression Visibility Wind Speed Wind Dir Waves Ship Positions

Ever Ursula

Last reported at 2016-Jan-23 15:20 UTC. Time now 2016-Feb-06 11:37 UTC.
Position N 22°34' E 114°18'.
Warning: this ship's position is 13 days out of date.

Type: Cargo ship. MMSI: 357737000.

Date/timePositionNaut miles runAvg speedWind from/ knotsBaromVisibWave heightAir tempDewpointWater temp
2016-Jan-23 15:20N 22°34' E 114°18'2 2.3
2016-Jan-23 14:31N 22°34' E 114°16'0 0.0
2016-Jan-23 13:25N 22°34' E 114°16'0 0.0
2016-Jan-23 12:30N 22°34' E 114°16'0 0.0
2016-Jan-23 10:19N 22°34' E 114°16'0 0.1
2016-Jan-23 09:31N 22°34' E 114°16'0 0.0
2016-Jan-23 07:19N 22°34' E 114°16'0 0.0
2016-Jan-23 06:31N 22°34' E 114°16'0 0.0
2016-Jan-23 01:25N 22°34' E 114°16'0 0.1
2016-Jan-23 00:31N 22°34' E 114°16'0 0.1
2016-Jan-22 23:31N 22°34' E 114°16'0 0.0
2016-Jan-22 22:21N 22°34' E 114°16'0 0.0
2016-Jan-22 21:33N 22°34' E 114°16'0 0.0
2016-Jan-22 18:27N 22°34' E 114°16'0 0.0
2016-Jan-22 15:33N 22°34' E 114°16'1 0.7
2016-Jan-22 14:33N 22°34' E 114°16'17 2.2
2016-Jan-22 06:32N 22°20' E 114°27'1212.2
2016-Jan-22 05:33N 22°09' E 114°22'10 9.4
2016-Jan-22 04:28N 22°11' E 114°11'1112.0
2016-Jan-22 03:33N 22°20' E 114°05'6 0.4
2016-Jan-21 12:16N 22°21' E 113°58'810.7
2016-Jan-21 11:33N 22°18' E 114°06'10 8.9
2016-Jan-21 10:26N 22°10' E 114°13'7 7.6
2016-Jan-21 09:33N 22°08' E 114°19'8 7.8
2016-Jan-21 08:33N 22°08' E 114°28'222 7.6
2016-Jan-20 03:28N 23°51' E 118°01'4 3.8
2016-Jan-20 02:29N 23°53' E 118°04'1110.5
2016-Jan-20 01:25N 24°03' E 118°11'1113.1
2016-Jan-20 00:33N 24°12' E 118°18'1211.8
2016-Jan-19 23:33N 24°21' E 118°09'10 4.9
2016-Jan-19 21:31N 24°27' E 118°00'0 0.1
2016-Jan-19 20:31N 24°27' E 118°00'0 0.0
2016-Jan-19 17:33N 24°27' E 118°00'2 0.4
2016-Jan-19 12:16N 24°26' E 118°02'6 8.5
2016-Jan-19 11:33N 24°22' E 118°08'6 6.3
2016-Jan-19 10:32N 24°18' E 118°13'8 7.3
2016-Jan-19 09:30N 24°12' E 118°18'1111.7
2016-Jan-19 08:33N 24°17' E 118°29'  
Track history (hours):
 
Tides and Currents Weather Stations Pressure Air Temp Water Temp Dewpoint Dewpoint Depression Visibility Wind Speed Wind Dir Waves Ship Positions

Ever Ursula

Last reported at 2016-Jan-23 15:20 UTC. Time now 2016-Feb-06 11:37 UTC.
Position N 22°34' E 114°18'.
Warning: this ship's position is 13 days out of date.

Type: Cargo ship. MMSI: 357737000.

Date/timePositionNaut miles runAvg speedWind from/ knotsBaromVisibWave heightAir tempDewpointWater temp
2016-Jan-23 15:20N 22°34' E 114°18'2 2.3
2016-Jan-23 14:31N 22°34' E 114°16'0 0.0
2016-Jan-23 13:25N 22°34' E 114°16'0 0.0
2016-Jan-23 12:30N 22°34' E 114°16'0 0.0
2016-Jan-23 10:19N 22°34' E 114°16'0 0.1
2016-Jan-23 09:31N 22°34' E 114°16'0 0.0
2016-Jan-23 07:19N 22°34' E 114°16'0 0.0
2016-Jan-23 06:31N 22°34' E 114°16'0 0.0
2016-Jan-23 01:25N 22°34' E 114°16'0 0.1
2016-Jan-23 00:31N 22°34' E 114°16'0 0.1
2016-Jan-22 23:31N 22°34' E 114°16'0 0.0
2016-Jan-22 22:21N 22°34' E 114°16'0 0.0
2016-Jan-22 21:33N 22°34' E 114°16'0 0.0
2016-Jan-22 18:27N 22°34' E 114°16'0 0.0
2016-Jan-22 15:33N 22°34' E 114°16'1 0.7
2016-Jan-22 14:33N 22°34' E 114°16'17 2.2
2016-Jan-22 06:32N 22°20' E 114°27'1212.2
2016-Jan-22 05:33N 22°09' E 114°22'10 9.4
2016-Jan-22 04:28N 22°11' E 114°11'1112.0
2016-Jan-22 03:33N 22°20' E 114°05'6 0.4
2016-Jan-21 12:16N 22°21' E 113°58'810.7
2016-Jan-21 11:33N 22°18' E 114°06'10 8.9
2016-Jan-21 10:26N 22°10' E 114°13'7 7.6
2016-Jan-21 09:33N 22°08' E 114°19'8 7.8
2016-Jan-21 08:33N 22°08' E 114°28'222 7.6
2016-Jan-20 03:28N 23°51' E 118°01'4 3.8
2016-Jan-20 02:29N 23°53' E 118°04'1110.5
2016-Jan-20 01:25N 24°03' E 118°11'1113.1
2016-Jan-20 00:33N 24°12' E 118°18'1211.8
2016-Jan-19 23:33N 24°21' E 118°09'10 4.9
2016-Jan-19 21:31N 24°27' E 118°00'0 0.1
2016-Jan-19 20:31N 24°27' E 118°00'0 0.0
2016-Jan-19 17:33N 24°27' E 118°00'2 0.4
2016-Jan-19 12:16N 24°26' E 118°02'6 8.5
2016-Jan-19 11:33N 24°22' E 118°08'6 6.3
2016-Jan-19 10:32N 24°18' E 118°13'8 7.3
2016-Jan-19 09:30N 24°12' E 118°18'1111.7
2016-Jan-19 08:33N 24°17' E 118°29'  

Dump ship's entire track history